Time;durP1;ratioP1;P1;durP2;ratioP2;P2;SDS_P1;SDS_P2;PMS_P1;PMS_P2;Temp;Humidity;BMP_temperature;BMP_pressure;BME280_temperature;BME280_humidity;BME280_pressure;Samples;Min_cycle;Max_cycle;Signal;HPM_P1;HPM_P2
2022/12/29 00:01:59;;;;;;;5.57;3.07;;;;;;;6.08;100.00;99866.75;4825336;29;20046;-82
2022/12/29 00:04:26;;;;;;;3.23;2.33;;;;;;;6.15;100.00;99867.53;4812614;29;20070;-81
2022/12/29 00:06:54;;;;;;;4.83;3.20;;;;;;;6.17;100.00;99861.34;4822987;29;20042;-82
2022/12/29 00:09:20;;;;;;;4.33;2.97;;;;;;;6.20;100.00;99857.81;4811852;29;20046;-82
2022/12/29 00:11:47;;;;;;;5.70;3.00;;;;;;;6.20;100.00;99856.03;4816293;29;20096;-82
2022/12/29 00:17:00;;;;;;;4.97;2.47;;;;;;;6.10;100.00;99854.47;4827796;29;20048;-82
2022/12/29 00:36:02;;;;;;;4.00;3.07;;;;;;;6.28;100.00;99832.31;4823407;29;20474;-80
2022/12/29 00:44:04;;;;;;;4.67;3.13;;;;;;;6.19;100.00;99838.59;4824150;29;20072;-82
2022/12/29 00:46:39;;;;;;;4.17;3.00;;;;;;;6.35;100.00;99826.09;4822625;29;20042;-80
2022/12/29 00:51:53;;;;;;;3.40;2.90;;;;;;;6.38;100.00;99818.16;4810854;29;20057;-84
2022/12/29 00:54:20;;;;;;;5.27;3.03;;;;;;;6.28;100.00;99820.97;4832874;29;20046;-82
2022/12/29 00:56:48;;;;;;;3.50;2.80;;;;;;;6.31;100.00;99821.81;4823999;29;20094;-82
2022/12/29 00:59:15;;;;;;;5.87;2.60;;;;;;;6.37;100.00;99807.69;4806381;29;20046;-83
2022/12/29 01:01:44;;;;;;;4.77;2.53;;;;;;;6.30;100.00;99814.78;4832555;29;20556;-81
2022/12/29 01:04:11;;;;;;;4.87;2.87;;;;;;;6.38;100.00;99812.03;4802583;29;20049;-83
2022/12/29 01:06:39;;;;;;;3.37;2.20;;;;;;;6.30;100.00;99806.94;4805333;29;20572;-82
2022/12/29 01:11:52;;;;;;;5.10;2.70;;;;;;;6.37;100.00;99811.19;4810037;29;20042;-80
2022/12/29 01:14:19;;;;;;;3.20;2.23;;;;;;;6.38;100.00;99804.19;4823264;29;20050;-81
2022/12/29 01:16:46;;;;;;;4.27;2.53;;;;;;;6.37;100.00;99805.06;4816170;29;20042;-80
2022/12/29 01:19:16;;;;;;;3.73;2.90;;;;;;;6.38;100.00;99806.81;4819799;29;20046;-80
2022/12/29 01:21:44;;;;;;;3.33;2.40;;;;;;;6.41;100.00;99799.75;4820090;29;20512;-82
2022/12/29 01:24:10;;;;;;;4.20;2.60;;;;;;;6.43;100.00;99797.09;4813088;29;20050;-82
2022/12/29 01:26:37;;;;;;;4.10;2.73;;;;;;;6.44;100.00;99798.84;4809821;29;20053;-84
2022/12/29 01:29:04;;;;;;;4.40;2.10;;;;;;;6.41;100.00;99805.00;4825441;29;20507;-82
2022/12/29 01:31:31;;;;;;;5.07;2.50;;;;;;;6.44;100.00;99797.06;4814455;29;20408;-81
2022/12/29 01:33:58;;;;;;;5.23;2.60;;;;;;;6.48;100.00;99796.16;4825849;29;20091;-83
2022/12/29 01:36:25;;;;;;;4.43;2.80;;;;;;;6.49;100.00;99790.00;4828205;29;20034;-82
2022/12/29 01:38:51;;;;;;;5.43;3.00;;;;;;;6.52;100.00;99794.31;4812081;29;20042;-81
2022/12/29 01:41:18;;;;;;;4.73;3.10;;;;;;;6.48;100.00;99790.91;4813348;29;20046;-82
2022/12/29 01:43:54;;;;;;;4.20;2.50;;;;;;;6.49;100.00;99786.50;4797968;29;20049;-82
2022/12/29 01:46:34;;;;;;;3.40;2.57;;;;;;;6.44;100.00;99785.72;4809803;29;20038;-81
2022/12/29 01:49:13;;;;;;;5.57;2.40;;;;;;;6.50;100.00;99777.75;4814105;29;20050;-82
2022/12/29 01:51:55;;;;;;;2.63;2.30;;;;;;;6.53;100.00;99782.91;4818636;29;20124;-81
2022/12/29 01:54:25;;;;;;;8.43;3.03;;;;;;;6.49;100.00;99783.88;4834152;29;20486;-84
2022/12/29 01:56:55;;;;;;;4.20;3.00;;;;;;;6.46;100.00;99784.78;4813867;29;20034;-83
2022/12/29 01:59:26;;;;;;;4.10;2.73;;;;;;;6.54;100.00;99768.91;4830235;29;20046;-82
2022/12/29 02:01:53;;;;;;;4.03;2.63;;;;;;;6.54;100.00;99775.91;4813241;29;20373;-82
2022/12/29 02:04:22;;;;;;;4.07;2.97;;;;;;;6.57;100.00;99776.75;4828630;29;20113;-82
2022/12/29 02:07:01;;;;;;;3.33;2.60;;;;;;;6.51;100.00;99775.97;4810457;29;20071;-84
2022/12/29 02:09:28;;;;;;;3.70;3.10;;;;;;;6.48;100.00;99777.78;4809538;29;20050;-81
2022/12/29 02:11:56;;;;;;;3.63;2.50;;;;;;;6.51;100.00;99768.97;4803133;29;20057;-82
2022/12/29 02:14:23;;;;;;;3.13;2.43;;;;;;;6.54;100.00;99768.91;4799997;29;20061;-82
2022/12/29 02:17:32;;;;;;;4.17;2.60;;;;;;;6.55;100.00;99767.16;4811599;29;20231;-80
2022/12/29 02:20:19;;;;;;;4.10;2.80;;;;;;;6.52;100.00;99760.19;4806479;29;20057;-82
2022/12/29 02:23:15;;;;;;;3.87;2.60;;;;;;;6.57;100.00;99755.75;4809344;29;20050;-82
2022/12/29 02:25:49;;;;;;;5.03;2.87;;;;;;;6.54;100.00;99754.91;4778231;29;20086;-83
2022/12/29 02:28:36;;;;;;;6.23;2.53;;;;;;;6.51;100.00;99753.22;4811153;29;20053;-83
2022/12/29 02:31:28;;;;;;;3.77;2.97;;;;;;;6.54;100.00;99750.53;4825178;29;20045;-80
2022/12/29 02:34:16;;;;;;;5.03;3.13;;;;;;;6.48;100.00;99753.28;4813019;29;20442;-82
2022/12/29 02:37:01;;;;;;;3.73;2.53;;;;;;;6.52;100.00;99747.09;4812535;29;20079;-81
2022/12/29 02:39:38;;;;;;;3.73;2.43;;;;;;;6.49;100.00;99732.28;4816306;29;20054;-82
2022/12/29 02:42:14;;;;;;;3.47;2.57;;;;;;;6.51;100.00;99731.38;4807235;29;20046;-82
2022/12/29 02:45:04;;;;;;;3.20;2.30;;;;;;;6.50;100.00;99730.50;4825868;29;20500;-80
2022/12/29 02:47:46;;;;;;;4.23;2.60;;;;;;;6.60;100.00;99725.94;4824274;29;20038;-83
2022/12/29 02:50:23;;;;;;;3.23;2.53;;;;;;;6.55;100.00;99720.78;4812053;29;20106;-80
2022/12/29 02:52:57;;;;;;;2.90;2.30;;;;;;;6.59;100.00;99734.72;4813020;29;20450;-83
2022/12/29 02:55:25;;;;;;;4.67;2.60;;;;;;;6.61;100.00;99725.91;4826666;29;20560;-82
2022/12/29 02:58:13;;;;;;;3.50;2.50;;;;;;;6.59;100.00;99734.72;4814601;29;20420;-82
2022/12/29 03:00:54;;;;;;;4.30;2.70;;;;;;;6.65;100.00;99724.97;4810316;29;20053;-82
2022/12/29 03:03:58;;;;;;;4.27;2.80;;;;;;;6.52;100.00;99733.09;4818831;29;20057;-82
2022/12/29 03:06:51;;;;;;;4.07;2.60;;;;;;;6.57;100.00;99731.28;4841396;29;20042;-83
2022/12/29 03:09:21;;;;;;;4.43;2.43;;;;;;;6.53;100.00;99725.19;4822847;29;20519;-82
2022/12/29 03:12:09;;;;;;;5.37;2.60;;;;;;;6.59;100.00;99717.22;4813906;29;20057;-81
2022/12/29 03:17:38;;;;;;;3.23;2.50;;;;;;;6.52;100.00;99709.47;4821015;29;20057;-81
2022/12/29 03:20:08;;;;;;;3.77;2.33;;;;;;;6.52;100.00;99697.22;4824010;29;20060;-81
2022/12/29 03:22:39;;;;;;;4.60;2.37;;;;;;;6.58;100.00;99710.22;4826185;29;20054;-83
2022/12/29 03:25:10;;;;;;;3.90;2.60;;;;;;;6.62;100.00;99705.78;4825600;29;20079;-81
2022/12/29 03:28:03;;;;;;;3.30;2.57;;;;;;;6.64;100.00;99699.63;4825020;29;20045;-83
2022/12/29 03:30:32;;;;;;;3.37;2.33;;;;;;;6.69;100.00;99700.38;4811139;29;20046;-81
2022/12/29 03:33:02;;;;;;;3.43;2.57;;;;;;;6.72;100.00;99689.81;4808076;29;20090;-83
2022/12/29 03:35:31;;;;;;;4.10;2.47;;;;;;;6.67;100.00;99686.44;4825499;29;20496;-82
2022/12/29 03:38:10;;;;;;;5.23;2.50;;;;;;;6.61;100.00;99690.94;4816315;29;20038;-82
2022/12/29 03:40:40;;;;;;;3.57;2.20;;;;;;;6.62;100.00;99690.03;4824387;29;20057;-84
2022/12/29 03:43:07;;;;;;;3.40;2.40;;;;;;;6.64;100.00;99681.25;4824176;29;20057;-85
2022/12/29 03:45:37;;;;;;;4.70;2.40;;;;;;;6.64;100.00;99678.63;4809715;29;20061;-83
2022/12/29 03:48:04;;;;;;;3.20;2.33;;;;;;;6.61;100.00;99677.81;4827835;29;20050;-84
2022/12/29 03:50:31;;;;;;;4.30;3.20;;;;;;;6.61;100.00;99669.94;4826416;29;20453;-83
2022/12/29 03:52:57;;;;;;;4.83;3.23;;;;;;;6.60;100.00;99666.44;4802907;29;20058;-84
2022/12/29 03:55:29;;;;;;;3.97;2.23;;;;;;;6.65;100.00;99674.25;4810584;29;20074;-83
2022/12/29 03:57:56;;;;;;;2.77;2.20;;;;;;;6.59;100.00;99680.47;4801799;29;20050;-85
2022/12/29 04:00:23;;;;;;;3.77;2.20;;;;;;;6.63;100.00;99679.50;4805695;29;20038;-82
2022/12/29 04:02:50;;;;;;;3.23;2.03;;;;;;;6.68;100.00;99689.91;4823465;29;20041;-85
2022/12/29 04:05:17;;;;;;;4.57;2.43;;;;;;;6.75;100.00;99684.53;4836868;29;20077;-84
2022/12/29 04:07:43;;;;;;;3.67;2.40;;;;;;;6.68;100.00;99682.91;4809700;29;20149;-83
2022/12/29 04:10:10;;;;;;;3.23;2.37;;;;;;;6.78;100.00;99686.19;4793953;29;20424;-84
2022/12/29 04:12:41;;;;;;;4.47;2.40;;;;;;;6.74;100.00;99680.16;4828087;29;20053;-83
2022/12/29 04:15:09;;;;;;;4.13;2.60;;;;;;;6.71;100.00;99676.72;4809823;29;20080;-84
2022/12/29 04:17:36;;;;;;;3.20;2.37;;;;;;;6.76;100.00;99678.38;4820390;29;20042;-82
2022/12/29 04:22:49;;;;;;;3.33;2.30;;;;;;;6.76;100.00;99672.25;4821815;29;20054;-84
2022/12/29 04:25:16;;;;;;;3.87;2.30;;;;;;;6.82;100.00;99666.03;4805274;29;20085;-82
2022/12/29 04:27:44;;;;;;;2.80;1.97;;;;;;;6.87;100.00;99651.88;4823647;29;20975;-82
2022/12/29 04:30:11;;;;;;;3.03;2.03;;;;;;;6.85;100.00;99648.44;4822151;29;20128;-84
2022/12/29 04:32:38;;;;;;;3.70;2.20;;;;;;;6.79;100.00;99645.94;4806936;29;20062;-85
2022/12/29 04:35:05;;;;;;;3.17;1.83;;;;;;;6.83;100.00;99631.00;4823503;29;20054;-83
2022/12/29 04:37:32;;;;;;;4.57;2.43;;;;;;;6.84;100.00;99632.72;4821595;29;20446;-83
2022/12/29 04:39:59;;;;;;;2.93;2.07;;;;;;;6.79;100.00;99645.94;4823921;29;20531;-83
2022/12/29 04:42:26;;;;;;;3.80;2.37;;;;;;;6.72;100.00;99653.06;4841525;29;20046;-83
2022/12/29 04:44:53;;;;;;;3.37;2.43;;;;;;;6.73;100.00;99660.06;4810140;29;20137;-85
2022/12/29 04:47:19;;;;;;;2.87;1.80;;;;;;;6.72;100.00;99665.31;4807316;29;20048;-84
2022/12/29 04:49:46;;;;;;;4.33;2.07;;;;;;;6.80;100.00;99649.41;4809239;29;20133;-82
2022/12/29 04:52:13;;;;;;;3.80;2.20;;;;;;;6.72;100.00;99645.19;4809178;29;20057;-82
2022/12/29 04:54:39;;;;;;;4.13;2.10;;;;;;;6.78;100.00;99655.56;4820048;29;20124;-83
2022/12/29 04:57:06;;;;;;;4.67;2.30;;;;;;;6.76;100.00;99648.63;4808644;29;20512;-82
2022/12/29 04:59:33;;;;;;;5.70;2.27;;;;;;;6.69;100.00;99636.53;4809739;29;20050;-82
2022/12/29 05:01:59;;;;;;;2.93;1.90;;;;;;;6.82;100.00;99638.00;4822767;29;20042;-85
2022/12/29 05:04:26;;;;;;;3.53;2.37;;;;;;;6.77;100.00;99638.09;4826529;29;20033;-82
2022/12/29 05:06:53;;;;;;;2.43;2.10;;;;;;;6.95;100.00;99636.81;4826579;29;20053;-84
2022/12/29 05:09:20;;;;;;;3.77;1.90;;;;;;;6.83;100.00;99631.84;4841370;29;20042;-81
2022/12/29 05:11:47;;;;;;;3.67;2.30;;;;;;;6.76;100.00;99625.88;4794715;29;20038;-82
2022/12/29 05:14:13;;;;;;;2.37;2.10;;;;;;;6.82;100.00;99635.38;4810007;29;20126;-82
2022/12/29 05:16:40;;;;;;;4.80;2.23;;;;;;;6.87;100.00;99625.63;4804266;29;20095;-81
2022/12/29 05:19:07;;;;;;;3.23;2.17;;;;;;;6.89;100.00;99629.06;4804318;29;20462;-82
2022/12/29 05:21:33;;;;;;;2.47;1.97;;;;;;;6.77;100.00;99621.47;4809290;29;20057;-82
2022/12/29 05:24:00;;;;;;;3.60;1.77;;;;;;;6.85;100.00;99630.06;4813857;29;20058;-79
2022/12/29 05:26:28;;;;;;;2.73;2.20;;;;;;;6.94;100.00;99616.72;4836876;29;20046;-81
2022/12/29 05:28:58;;;;;;;4.27;2.50;;;;;;;6.95;100.00;99607.06;4800947;29;20057;-81
2022/12/29 05:31:24;;;;;;;4.40;2.67;;;;;;;7.06;100.00;99605.06;4806697;29;20042;-81
2022/12/29 05:33:51;;;;;;;6.60;2.63;;;;;;;7.08;100.00;99602.44;4818592;29;20077;-81
2022/12/29 05:36:18;;;;;;;5.13;2.63;;;;;;;7.07;100.00;99593.69;4807785;29;20050;-81
2022/12/29 05:38:44;;;;;;;2.50;1.83;;;;;;;7.18;100.00;99591.66;4827681;29;20041;-80
2022/12/29 05:41:11;;;;;;;5.43;1.93;;;;;;;7.30;100.00;99585.22;4823571;29;20046;-81
2022/12/29 05:43:38;;;;;;;3.63;2.10;;;;;;;7.37;100.00;99580.69;4822810;29;20069;-81
2022/12/29 05:46:04;;;;;;;3.53;2.10;;;;;;;7.41;100.00;99588.47;4792516;29;20054;-81
2022/12/29 05:48:31;;;;;;;3.60;2.00;;;;;;;7.41;100.00;99595.50;4805547;29;20035;-82
2022/12/29 05:51:03;;;;;;;3.70;1.93;;;;;;;7.46;100.00;99598.88;4814471;29;20500;-81
2022/12/29 05:53:33;;;;;;;3.90;1.90;;;;;;;7.48;100.00;99591.78;4794255;29;20050;-80
2022/12/29 05:55:59;;;;;;;2.20;1.73;;;;;;;7.56;100.00;99597.72;4829216;29;20119;-81
2022/12/29 05:58:26;;;;;;;2.37;1.60;;;;;;;7.55;100.00;99581.09;4823301;29;20086;-81
2022/12/29 06:00:53;;;;;;;3.13;2.07;;;;;;;7.56;100.00;99580.19;4811251;29;20054;-82
2022/12/29 06:03:19;;;;;;;3.97;2.00;;;;;;;7.69;100.00;99588.63;4807449;29;20050;-81
2022/12/29 06:05:49;;;;;;;2.57;2.03;;;;;;;7.77;100.00;99589.31;4823849;29;20133;-81
2022/12/29 06:08:15;;;;;;;2.70;1.83;;;;;;;7.76;100.00;99590.22;4812415;29;20056;-80
2022/12/29 06:10:42;;;;;;;2.83;1.70;;;;;;;7.87;100.00;99597.81;4811700;29;20421;-80
2022/12/29 06:13:09;;;;;;;2.20;1.93;;;;;;;7.84;100.00;99588.25;4826657;29;20052;-82
2022/12/29 06:15:35;;;;;;;3.60;1.80;;;;;;;7.86;100.00;99585.56;4827510;29;20058;-79
2022/12/29 06:18:03;;;;;;;3.03;1.80;;;;;;;7.95;100.00;99593.22;4819853;29;20633;-82
2022/12/29 06:20:30;;;;;;;3.17;1.70;;;;;;;7.99;100.00;99591.34;4808635;29;20116;-81
2022/12/29 06:22:57;;;;;;;3.90;2.30;;;;;;;8.00;100.00;99590.47;4809869;29;20514;-82
2022/12/29 06:25:26;;;;;;;5.83;2.17;;;;;;;8.03;100.00;99580.72;4821519;29;20577;-82
2022/12/29 06:27:52;;;;;;;3.53;2.10;;;;;;;8.02;100.00;99583.41;4824945;29;20070;-83
2022/12/29 06:30:19;;;;;;;2.50;1.90;;;;;;;7.90;100.00;99589.81;4792638;29;20103;-83
2022/12/29 06:32:46;;;;;;;2.83;1.73;;;;;;;7.94;100.00;99590.63;4810073;29;20041;-81
2022/12/29 06:35:13;;;;;;;4.07;1.80;;;;;;;7.97;100.00;99594.03;4811191;29;20046;-83
2022/12/29 06:37:40;;;;;;;3.97;1.90;;;;;;;8.00;100.00;99598.38;4819933;29;20443;-79
2022/12/29 06:40:07;;;;;;;2.17;1.73;;;;;;;8.17;100.00;99590.88;4817018;29;20050;-81
2022/12/29 06:42:34;;;;;;;2.87;1.63;;;;;;;8.21;100.00;99597.75;4821191;29;20049;-83
2022/12/29 06:45:01;;;;;;;2.37;1.80;;;;;;;8.17;100.00;99589.09;4811219;29;20069;-80
2022/12/29 06:47:27;;;;;;;3.13;2.17;;;;;;;8.17;100.00;99586.47;4805210;29;20049;-82
2022/12/29 06:49:55;;;;;;;3.30;1.70;;;;;;;8.30;100.00;99583.47;4823078;29;20050;-82
2022/12/29 06:52:23;;;;;;;3.00;1.80;;;;;;;8.35;100.00;99574.59;4827915;29;20049;-83
2022/12/29 06:54:50;;;;;;;2.37;1.83;;;;;;;8.33;100.00;99576.38;4804582;29;20048;-82
2022/12/29 06:57:17;;;;;;;3.50;2.10;;;;;;;8.35;100.00;99579.00;4812490;29;20140;-81
2022/12/29 06:59:44;;;;;;;5.13;2.10;;;;;;;8.25;100.00;99581.00;4813297;29;20125;-82
2022/12/29 07:02:11;;;;;;;2.43;1.73;;;;;;;8.35;100.00;99573.72;4826388;29;20053;-83
2022/12/29 07:04:40;;;;;;;2.57;1.87;;;;;;;8.38;100.00;99579.75;4843594;29;20065;-81
2022/12/29 07:07:06;;;;;;;3.97;2.20;;;;;;;8.32;100.00;99577.25;4818402;29;20073;-83
2022/12/29 07:09:33;;;;;;;3.20;1.80;;;;;;;8.36;100.00;99591.25;4812762;29;20125;-82
2022/12/29 07:12:00;;;;;;;1.83;1.50;;;;;;;8.49;100.00;99582.06;4809847;29;20497;-81
2022/12/29 07:14:27;;;;;;;2.33;1.80;;;;;;;8.53;100.00;99588.13;4812499;29;20468;-82
2022/12/29 07:16:54;;;;;;;3.27;1.53;;;;;;;8.50;100.00;99578.56;4825821;29;20057;-80
2022/12/29 07:19:20;;;;;;;3.33;1.80;;;;;;;8.45;100.00;99581.31;4812343;29;20118;-83
2022/12/29 07:21:47;;;;;;;2.10;1.50;;;;;;;8.35;100.00;99586.88;4826512;29;20046;-81
2022/12/29 07:24:16;;;;;;;2.17;1.50;;;;;;;8.40;100.00;99580.56;4815121;29;20053;-83
2022/12/29 07:26:43;;;;;;;3.00;1.70;;;;;;;8.47;100.00;99583.88;4827610;29;20405;-82
2022/12/29 07:29:10;;;;;;;3.13;1.60;;;;;;;8.41;100.00;99579.69;4811174;29;20133;-80
2022/12/29 07:31:36;;;;;;;3.23;2.10;;;;;;;8.42;100.00;99575.28;4806725;29;20500;-82
2022/12/29 07:34:03;;;;;;;2.20;1.57;;;;;;;8.45;100.00;99570.78;4812287;29;20042;-82
2022/12/29 07:36:30;;;;;;;3.27;1.70;;;;;;;8.45;100.00;99576.03;4803504;29;20046;-81
2022/12/29 07:39:00;;;;;;;2.63;1.60;;;;;;;8.37;100.00;99583.28;4838607;29;20046;-81
2022/12/29 07:41:27;;;;;;;3.93;2.03;;;;;;;8.39;100.00;99586.75;4810814;29;20512;-82
2022/12/29 07:43:54;;;;;;;2.33;1.80;;;;;;;8.54;100.00;99579.31;4805661;29;20042;-84
2022/12/29 07:46:20;;;;;;;2.83;1.60;;;;;;;8.55;100.00;99579.25;4825369;29;20042;-82
2022/12/29 07:49:07;;;;;;;2.50;1.90;;;;;;;8.46;100.00;99583.03;4823380;29;20041;-84
2022/12/29 07:51:34;;;;;;;2.13;1.57;;;;;;;8.61;100.00;99575.59;4804983;29;20111;-83
2022/12/29 07:54:01;;;;;;;2.20;1.60;;;;;;;8.58;100.00;99567.81;4820022;29;20058;-83
2022/12/29 07:56:27;;;;;;;2.73;1.60;;;;;;;8.57;100.00;99564.28;4824845;29;20057;-83
2022/12/29 07:58:56;;;;;;;2.43;1.70;;;;;;;8.55;100.00;99559.97;4791474;29;20058;-84
2022/12/29 08:01:23;;;;;;;3.30;1.70;;;;;;;8.57;100.00;99563.41;4821280;29;20054;-81
2022/12/29 08:03:50;;;;;;;3.47;1.57;;;;;;;8.58;100.00;99568.66;4821859;29;20714;-84
2022/12/29 08:06:23;;;;;;;3.20;1.90;;;;;;;8.58;100.00;99573.06;4803661;29;20046;-82
2022/12/29 08:08:49;;;;;;;2.10;1.50;;;;;;;8.68;100.00;99570.09;4818651;29;20124;-81
2022/12/29 08:11:16;;;;;;;3.60;1.90;;;;;;;8.73;100.00;99575.22;4807573;29;20071;-82
2022/12/29 08:13:43;;;;;;;2.33;1.50;;;;;;;8.85;100.00;99571.38;4809893;29;20042;-84
2022/12/29 08:16:09;;;;;;;3.63;2.03;;;;;;;8.80;100.00;99581.16;4793303;29;20042;-82
2022/12/29 08:18:36;;;;;;;2.77;1.40;;;;;;;8.85;100.00;99579.25;4788085;29;20070;-83
2022/12/29 08:21:03;;;;;;;2.17;1.30;;;;;;;8.96;100.00;99564.84;4808512;29;20049;-82
2022/12/29 08:23:30;;;;;;;1.97;1.50;;;;;;;8.98;100.00;99572.69;4808810;29;20048;-84
2022/12/29 08:26:02;;;;;;;2.55;1.50;;;;;;;9.08;100.00;99582.06;4814566;29;20069;-81
2022/12/29 08:28:29;;;;;;;3.67;1.60;;;;;;;9.15;100.00;99577.44;4802302;29;20042;-82
2022/12/29 08:31:00;;;;;;;2.40;1.15;;;;;;;9.17;100.00;99586.16;4794096;29;20046;-81
2022/12/29 08:33:28;;;;;;;2.80;1.33;;;;;;;9.20;100.00;99572.88;4876919;23;20872;-80
2022/12/29 08:36:03;;;;;;;2.10;1.55;;;;;;;9.25;100.00;99582.38;4858094;29;20049;-80
2022/12/29 08:38:30;;;;;;;2.40;1.40;;;;;;;9.25;100.00;99576.25;4875916;29;20032;-81
2022/12/29 08:40:58;;;;;;;2.30;1.58;;;;;;;9.30;100.00;99585.72;4875155;29;20065;-80
2022/12/29 08:43:25;;;;;;;1.80;1.40;;;;;;;9.44;100.00;99589.69;4859634;29;20038;-81
2022/12/29 08:45:52;;;;;;;3.35;1.70;;;;;;;9.52;100.00;99587.66;4860450;29;20062;-82
2022/12/29 08:48:19;;;;;;;2.13;1.60;;;;;;;9.57;100.00;99573.38;4881383;29;20086;-79
2022/12/29 08:50:46;;;;;;;2.88;2.50;;;;;;;9.64;100.00;99568.78;4880579;29;20033;-81
2022/12/29 08:53:13;;;;;;;3.17;2.30;;;;;;;9.71;100.00;99565.00;4877016;29;20097;-80
2022/12/29 08:55:39;;;;;;;2.17;2.00;;;;;;;9.80;100.00;99569.09;4863708;29;20082;-79
2022/12/29 08:58:06;;;;;;;3.17;1.70;;;;;;;9.78;100.00;99558.63;4859526;29;20053;-79
2022/12/29 09:00:33;;;;;;;2.30;2.10;;;;;;;9.90;100.00;99565.22;4867949;29;20061;-79
2022/12/29 09:02:59;;;;;;;2.28;1.33;;;;;;;9.92;100.00;99559.88;4891235;29;20074;-79
2022/12/29 09:05:26;;;;;;;3.00;1.63;;;;;;;9.96;100.00;99564.16;4861665;29;20042;-81
2022/12/29 09:07:53;;;;;;;1.90;1.48;;;;;;;10.00;100.00;99566.63;4868569;29;21297;-79
2022/12/29 09:10:19;;;;;;;2.90;1.63;;;;;;;9.98;100.00;99560.53;4850810;29;20491;-80
2022/12/29 09:12:46;;;;;;;2.00;1.60;;;;;;;10.00;100.00;99545.50;4872863;29;20085;-80
2022/12/29 09:15:15;;;;;;;2.53;1.45;;;;;;;10.00;100.00;99550.78;4872285;29;20053;-81
2022/12/29 09:17:45;;;;;;;2.05;1.30;;;;;;;10.01;100.00;99547.25;4858426;29;20033;-81
2022/12/29 09:20:13;;;;;;;2.55;1.95;;;;;;;9.99;100.00;99535.88;4870121;29;20042;-82
2022/12/29 09:22:40;;;;;;;2.40;1.98;;;;;;;10.00;100.00;99527.03;4874170;29;20105;-82
2022/12/29 09:25:08;;;;;;;2.08;1.73;;;;;;;9.99;100.00;99554.34;4857487;29;20120;-80
2022/12/29 09:27:36;;;;;;;3.40;1.83;;;;;;;9.97;100.00;99540.34;4888846;29;20703;-81
2022/12/29 09:30:05;;;;;;;3.92;1.40;;;;;;;10.00;100.00;99548.16;4862919;29;20082;-80
2022/12/29 09:32:32;;;;;;;2.05;1.30;;;;;;;9.98;100.00;99546.50;4843785;29;20049;-80
2022/12/29 09:35:01;;;;;;;2.63;2.40;;;;;;;10.01;100.00;99538.47;4880810;29;20056;-80
2022/12/29 09:37:28;;;;;;;4.38;3.97;;;;;;;10.11;100.00;99535.44;4858820;29;20093;-80
2022/12/29 09:39:55;;;;;;;2.13;1.65;;;;;;;10.16;100.00;99549.31;4859666;29;20037;-81
2022/12/29 09:42:29;;;;;;;2.65;2.05;;;;;;;10.21;100.00;99537.75;4873342;29;20045;-81
2022/12/29 09:45:34;;;;;;;8.43;5.97;;;;;;;10.27;100.00;99545.47;4865056;29;20074;-81
2022/12/29 09:48:04;;;;;;;3.47;2.20;;;;;;;10.29;100.00;99530.44;4831323;29;20053;-81
2022/12/29 09:50:37;;;;;;;3.97;2.85;;;;;;;10.35;100.00;99546.91;4877900;29;20042;-80
2022/12/29 09:53:27;;;;;;;5.22;3.80;;;;;;;10.30;100.00;99537.44;4879449;29;20046;-81
2022/12/29 09:55:56;;;;;;;4.10;3.10;;;;;;;10.35;100.00;99541.63;4894696;29;20025;-80
2022/12/29 09:58:40;;;;;;;3.88;3.17;;;;;;;10.43;100.00;99536.06;4861898;29;20053;-81
2022/12/29 10:01:44;;;;;;;1.52;1.40;;;;;;;10.44;100.00;99529.88;4878474;29;20060;-81
2022/12/29 10:04:10;;;;;;;2.38;1.85;;;;;;;10.48;100.00;99533.25;4860000;29;20071;-80
2022/12/29 10:06:56;;;;;;;2.33;1.60;;;;;;;10.51;100.00;99531.38;4860389;29;20148;-80
2022/12/29 10:09:49;;;;;;;1.70;1.60;;;;;;;10.55;100.00;99542.66;4861903;29;20065;-80
2022/12/29 10:12:27;;;;;;;2.03;1.70;;;;;;;10.54;100.00;99533.88;4876280;29;20070;-80
2022/12/29 10:14:57;;;;;;;2.83;1.70;;;;;;;10.66;100.00;99535.16;4875269;29;20041;-78
2022/12/29 10:17:41;;;;;;;3.05;1.73;;;;;;;10.62;100.00;99537.09;4873652;29;20054;-79
2022/12/29 10:20:27;;;;;;;3.03;1.80;;;;;;;10.57;100.00;99536.38;4874187;29;20056;-80
2022/12/29 10:23:14;;;;;;;3.95;2.33;;;;;;;10.54;100.00;99539.16;4871313;29;20041;-80
2022/12/29 10:25:42;;;;;;;2.92;2.08;;;;;;;10.53;100.00;99540.06;4875173;29;20060;-80
2022/12/29 10:28:20;;;;;;;2.80;2.17;;;;;;;10.45;100.00;99544.78;4847956;29;20038;-79
2022/12/29 10:30:48;;;;;;;4.13;3.15;;;;;;;10.47;100.00;99539.44;4877523;29;20046;-80
2022/12/29 10:33:20;;;;;;;2.97;1.70;;;;;;;10.48;100.00;99543.81;4872256;29;20094;-82
2022/12/29 10:35:47;;;;;;;1.58;1.30;;;;;;;10.43;100.00;99538.72;4855132;29;20070;-80
2022/12/29 10:38:33;;;;;;;4.28;2.10;;;;;;;10.46;100.00;99543.88;4846100;29;20041;-80
2022/12/29 10:41:05;;;;;;;2.15;1.48;;;;;;;10.50;100.00;99540.19;4872583;29;20690;-81
2022/12/29 10:43:44;;;;;;;1.75;1.45;;;;;;;10.56;100.00;99545.22;4859271;29;20034;-81
2022/12/29 10:46:14;;;;;;;2.78;1.23;;;;;;;10.63;100.00;99554.66;4841919;29;20054;-81
2022/12/29 10:48:45;;;;;;;2.63;1.40;;;;;;;10.82;100.00;99549.50;4863172;29;20070;-81
2022/12/29 10:51:35;;;;;;;1.48;1.35;;;;;;;11.00;100.00;99548.78;4849395;29;20042;-81
2022/12/29 10:54:12;;;;;;;2.28;1.52;;;;;;;11.18;100.00;99538.38;4859939;29;20050;-80
2022/12/29 10:56:44;;;;;;;4.25;1.50;;;;;;;11.41;100.00;99535.66;4845168;29;20101;-80
2022/12/29 10:59:22;;;;;;;2.47;1.15;;;;;;;11.55;98.42;99524.50;4858087;29;20052;-81
2022/12/29 11:02:04;;;;;;;1.88;1.35;;;;;;;11.60;99.81;99534.88;4852520;29;20068;-81
2022/12/29 11:04:50;;;;;;;2.67;1.33;;;;;;;11.66;99.80;99537.25;4842508;29;20046;-80
2022/12/29 11:07:18;;;;;;;1.75;1.50;;;;;;;11.53;99.26;99540.44;4857578;29;20046;-80
2022/12/29 11:09:52;;;;;;;3.47;1.38;;;;;;;11.51;98.94;99544.91;4855359;29;20412;-80
2022/12/29 11:12:20;;;;;;;2.25;1.38;;;;;;;11.44;99.67;99529.41;4841525;29;20088;-80
2022/12/29 11:14:48;;;;;;;1.90;1.55;;;;;;;11.41;100.00;99537.44;4843750;29;20114;-81
2022/12/29 11:17:17;;;;;;;8.98;4.38;;;;;;;11.35;100.00;99535.03;4858154;29;20042;-82
2022/12/29 11:19:43;;;;;;;29.00;12.32;;;;;;;11.40;100.00;99544.50;4842645;29;20049;-81
2022/12/29 11:22:21;;;;;;;4.43;3.05;;;;;;;11.42;100.00;99524.16;4858479;29;20053;-81
2022/12/29 11:24:50;;;;;;;8.48;5.95;;;;;;;11.42;100.00;99541.81;4858169;29;20049;-81
2022/12/29 11:27:22;;;;;;;3.95;3.28;;;;;;;11.44;100.00;99537.34;4861790;29;20056;-81
2022/12/29 11:29:50;;;;;;;5.68;5.20;;;;;;;11.42;100.00;99547.94;4861991;29;20041;-82
2022/12/29 11:32:23;;;;;;;17.17;10.95;;;;;;;11.44;100.00;99543.47;4859203;29;20041;-82
2022/12/29 11:34:57;;;;;;;21.13;10.82;;;;;;;11.46;100.00;99538.13;4843864;29;20109;-81
2022/12/29 11:37:38;;;;;;;7.55;4.30;;;;;;;11.32;100.00;99545.75;4834935;29;20073;-80
2022/12/29 11:40:15;;;;;;;3.25;2.67;;;;;;;11.29;100.00;99552.03;4868611;29;20061;-81
2022/12/29 11:42:48;;;;;;;3.08;1.77;;;;;;;11.19;100.00;99553.34;4873891;29;20506;-82
2022/12/29 11:45:26;;;;;;;1.52;1.35;;;;;;;11.07;100.00;99559.97;4842266;29;20523;-81
2022/12/29 11:48:16;;;;;;;3.10;1.50;;;;;;;10.89;100.00;99568.63;4856442;29;20037;-81
2022/12/29 11:50:49;;;;;;;2.45;1.30;;;;;;;10.66;100.00;99564.22;4840909;29;20407;-82
2022/12/29 11:53:37;;;;;;;1.58;1.13;;;;;;;10.49;100.00;99567.50;4859160;29;20041;-82
2022/12/29 11:56:07;;;;;;;1.45;1.08;;;;;;;10.29;100.00;99570.03;4859887;29;20045;-81
2022/12/29 11:58:36;;;;;;;3.08;2.55;;;;;;;10.12;100.00;99571.47;4841813;29;20090;-82
2022/12/29 12:01:11;;;;;;;3.47;1.20;;;;;;;10.03;100.00;99558.63;4842709;29;20054;-80
2022/12/29 12:03:46;;;;;;;2.05;1.15;;;;;;;9.97;100.00;99572.00;4863321;29;20057;-81
2022/12/29 12:06:16;;;;;;;1.13;1.02;;;;;;;9.74;100.00;99571.94;4839619;29;20041;-81
2022/12/29 12:08:55;;;;;;;6.38;4.75;;;;;;;9.68;100.00;99557.22;4841533;29;20037;-83
2022/12/29 12:11:28;;;;;;;2.15;1.27;;;;;;;9.61;100.00;99575.94;4848304;29;21180;-82
2022/12/29 12:14:00;;;;;;;2.45;2.03;;;;;;;9.65;100.00;99585.44;4842998;29;20108;-80
2022/12/29 12:16:32;;;;;;;1.90;1.63;;;;;;;9.58;100.00;99583.03;4841028;29;20041;-80
2022/12/29 12:19:02;;;;;;;1.25;0.98;;;;;;;9.47;100.00;99587.78;4852650;29;20068;-80
2022/12/29 12:21:33;;;;;;;3.05;1.33;;;;;;;9.36;100.00;99589.94;4862835;29;20053;-80
2022/12/29 12:24:33;;;;;;;2.42;1.40;;;;;;;9.31;100.00;99590.06;4847416;29;20045;-80
2022/12/29 12:27:20;;;;;;;2.22;1.17;;;;;;;9.25;100.00;99579.75;4879803;29;20045;-81